sensor_id;sensor_type;location;lat;lon;timestamp;temperature;humidity
39103;DHT22;24847;48.218;16.414;2022-09-13T00:02:11;15.50;99.90
39103;DHT22;24847;48.218;16.414;2022-09-13T00:07:14;15.70;99.90
39103;DHT22;24847;48.218;16.414;2022-09-13T00:12:16;15.50;99.90
39103;DHT22;24847;48.218;16.414;2022-09-13T00:17:20;15.40;99.90
39103;DHT22;24847;48.218;16.414;2022-09-13T00:22:22;15.40;99.90
39103;DHT22;24847;48.218;16.414;2022-09-13T00:27:24;15.40;99.90
39103;DHT22;24847;48.218;16.414;2022-09-13T00:32:28;15.60;99.90
39103;DHT22;24847;48.218;16.414;2022-09-13T00:37:31;15.40;99.90
39103;DHT22;24847;48.218;16.414;2022-09-13T00:42:33;15.20;99.90
39103;DHT22;24847;48.218;16.414;2022-09-13T00:47:40;15.30;99.90
39103;DHT22;24847;48.218;16.414;2022-09-13T00:52:47;15.20;99.90
39103;DHT22;24847;48.218;16.414;2022-09-13T00:57:53;15.00;99.90
39103;DHT22;24847;48.218;16.414;2022-09-13T01:03:03;14.90;99.90
39103;DHT22;24847;48.218;16.414;2022-09-13T01:08:08;15.00;99.90
39103;DHT22;24847;48.218;16.414;2022-09-13T01:13:17;14.80;99.90
39103;DHT22;24847;48.218;16.414;2022-09-13T01:18:22;15.00;99.90
39103;DHT22;24847;48.218;16.414;2022-09-13T01:23:42;14.80;99.90
39103;DHT22;24847;48.218;16.414;2022-09-13T01:35:08;14.70;99.90
39103;DHT22;24847;48.218;16.414;2022-09-13T01:40:27;14.60;99.90
39103;DHT22;24847;48.218;16.414;2022-09-13T01:45:41;14.50;99.90
39103;DHT22;24847;48.218;16.414;2022-09-13T01:50:56;14.50;99.90
39103;DHT22;24847;48.218;16.414;2022-09-13T01:56:03;14.30;99.90
39103;DHT22;24847;48.218;16.414;2022-09-13T02:01:10;14.20;99.90
39103;DHT22;24847;48.218;16.414;2022-09-13T02:06:21;14.20;99.90
39103;DHT22;24847;48.218;16.414;2022-09-13T02:11:25;14.10;99.90
39103;DHT22;24847;48.218;16.414;2022-09-13T02:16:32;14.00;99.90
39103;DHT22;24847;48.218;16.414;2022-09-13T02:21:40;13.90;99.90
39103;DHT22;24847;48.218;16.414;2022-09-13T02:26:46;13.90;99.90
39103;DHT22;24847;48.218;16.414;2022-09-13T02:31:55;14.00;99.90
39103;DHT22;24847;48.218;16.414;2022-09-13T02:37:03;14.40;99.90
39103;DHT22;24847;48.218;16.414;2022-09-13T02:42:11;14.30;99.90
39103;DHT22;24847;48.218;16.414;2022-09-13T02:47:39;14.20;99.90
39103;DHT22;24847;48.218;16.414;2022-09-13T02:52:49;13.90;99.90
39103;DHT22;24847;48.218;16.414;2022-09-13T02:58:01;13.80;99.90
39103;DHT22;24847;48.218;16.414;2022-09-13T03:03:08;13.80;99.90
39103;DHT22;24847;48.218;16.414;2022-09-13T03:08:14;13.60;99.90
39103;DHT22;24847;48.218;16.414;2022-09-13T03:19:11;13.50;99.90
39103;DHT22;24847;48.218;16.414;2022-09-13T03:24:27;13.50;99.90
39103;DHT22;24847;48.218;16.414;2022-09-13T03:29:39;13.50;99.90
39103;DHT22;24847;48.218;16.414;2022-09-13T03:34:46;13.30;99.90
39103;DHT22;24847;48.218;16.414;2022-09-13T03:39:55;13.30;99.90
39103;DHT22;24847;48.218;16.414;2022-09-13T03:44:59;13.30;99.90
39103;DHT22;24847;48.218;16.414;2022-09-13T03:50:05;13.40;99.90
39103;DHT22;24847;48.218;16.414;2022-09-13T03:55:10;13.30;99.90
39103;DHT22;24847;48.218;16.414;2022-09-13T04:00:13;13.30;99.90
39103;DHT22;24847;48.218;16.414;2022-09-13T04:05:17;13.30;99.90
39103;DHT22;24847;48.218;16.414;2022-09-13T04:10:21;13.40;99.90
39103;DHT22;24847;48.218;16.414;2022-09-13T04:15:23;13.30;99.90
39103;DHT22;24847;48.218;16.414;2022-09-13T04:20:26;13.30;99.90
39103;DHT22;24847;48.218;16.414;2022-09-13T04:25:30;13.20;99.90
39103;DHT22;24847;48.218;16.414;2022-09-13T04:30:32;13.10;99.90
39103;DHT22;24847;48.218;16.414;2022-09-13T04:35:34;13.30;99.90
39103;DHT22;24847;48.218;16.414;2022-09-13T04:40:39;13.40;99.90
39103;DHT22;24847;48.218;16.414;2022-09-13T04:45:41;13.20;99.90
39103;DHT22;24847;48.218;16.414;2022-09-13T04:50:44;13.30;99.90
39103;DHT22;24847;48.218;16.414;2022-09-13T04:55:48;13.10;99.90
39103;DHT22;24847;48.218;16.414;2022-09-13T05:00:50;13.20;99.90
39103;DHT22;24847;48.218;16.414;2022-09-13T05:06:00;13.30;99.90
39103;DHT22;24847;48.218;16.414;2022-09-13T05:11:06;13.20;99.90
39103;DHT22;24847;48.218;16.414;2022-09-13T05:16:09;13.20;99.90
39103;DHT22;24847;48.218;16.414;2022-09-13T05:21:11;13.20;99.90
39103;DHT22;24847;48.218;16.414;2022-09-13T05:26:15;13.30;99.90
39103;DHT22;24847;48.218;16.414;2022-09-13T05:31:19;13.20;99.90
39103;DHT22;24847;48.218;16.414;2022-09-13T05:36:24;13.30;99.90
39103;DHT22;24847;48.218;16.414;2022-09-13T05:41:28;13.30;99.90
39103;DHT22;24847;48.218;16.414;2022-09-13T05:46:30;13.60;99.90
39103;DHT22;24847;48.218;16.414;2022-09-13T05:51:33;13.60;99.90
39103;DHT22;24847;48.218;16.414;2022-09-13T05:56:37;13.60;99.90
39103;DHT22;24847;48.218;16.414;2022-09-13T06:01:40;13.70;99.90
39103;DHT22;24847;48.218;16.414;2022-09-13T06:06:42;13.70;99.90
39103;DHT22;24847;48.218;16.414;2022-09-13T06:11:46;13.90;99.90
39103;DHT22;24847;48.218;16.414;2022-09-13T06:16:48;14.00;99.90
39103;DHT22;24847;48.218;16.414;2022-09-13T06:21:50;14.10;99.90
39103;DHT22;24847;48.218;16.414;2022-09-13T06:26:54;14.30;99.90
39103;DHT22;24847;48.218;16.414;2022-09-13T06:31:56;14.20;99.90
39103;DHT22;24847;48.218;16.414;2022-09-13T06:36:58;14.50;99.90
39103;DHT22;24847;48.218;16.414;2022-09-13T06:42:02;14.30;99.90
39103;DHT22;24847;48.218;16.414;2022-09-13T06:47:04;14.70;99.90
39103;DHT22;24847;48.218;16.414;2022-09-13T06:52:07;14.80;99.90
39103;DHT22;24847;48.218;16.414;2022-09-13T06:57:10;14.80;99.90
39103;DHT22;24847;48.218;16.414;2022-09-13T07:02:12;15.10;99.90
39103;DHT22;24847;48.218;16.414;2022-09-13T07:07:15;15.10;99.90
39103;DHT22;24847;48.218;16.414;2022-09-13T07:12:20;15.20;99.90
39103;DHT22;24847;48.218;16.414;2022-09-13T07:17:22;15.50;99.90
39103;DHT22;24847;48.218;16.414;2022-09-13T07:22:24;15.40;99.90
39103;DHT22;24847;48.218;16.414;2022-09-13T07:27:28;15.60;99.90
39103;DHT22;24847;48.218;16.414;2022-09-13T07:32:31;17.10;99.90
39103;DHT22;24847;48.218;16.414;2022-09-13T07:37:33;18.40;99.90
39103;DHT22;24847;48.218;16.414;2022-09-13T07:42:45;18.00;99.90
39103;DHT22;24847;48.218;16.414;2022-09-13T07:47:50;18.50;99.90
39103;DHT22;24847;48.218;16.414;2022-09-13T07:52:56;19.40;99.90
39103;DHT22;24847;48.218;16.414;2022-09-13T07:58:00;19.70;99.90
39103;DHT22;24847;48.218;16.414;2022-09-13T08:03:02;20.00;99.90
39103;DHT22;24847;48.218;16.414;2022-09-13T08:08:04;20.00;99.90
39103;DHT22;24847;48.218;16.414;2022-09-13T08:13:08;20.60;99.90
39103;DHT22;24847;48.218;16.414;2022-09-13T08:18:10;20.20;99.90
39103;DHT22;24847;48.218;16.414;2022-09-13T08:23:13;20.90;99.90
39103;DHT22;24847;48.218;16.414;2022-09-13T08:28:18;21.00;99.90
39103;DHT22;24847;48.218;16.414;2022-09-13T08:33:22;20.90;99.90
39103;DHT22;24847;48.218;16.414;2022-09-13T08:38:24;21.40;99.90
39103;DHT22;24847;48.218;16.414;2022-09-13T08:43:38;21.10;99.90
39103;DHT22;24847;48.218;16.414;2022-09-13T08:48:45;21.40;99.90
39103;DHT22;24847;48.218;16.414;2022-09-13T08:53:49;22.10;99.90
39103;DHT22;24847;48.218;16.414;2022-09-13T08:59:05;21.90;99.90
39103;DHT22;24847;48.218;16.414;2022-09-13T09:04:30;22.00;99.90
39103;DHT22;24847;48.218;16.414;2022-09-13T09:09:42;22.50;99.90
39103;DHT22;24847;48.218;16.414;2022-09-13T09:14:55;22.10;99.90
39103;DHT22;24847;48.218;16.414;2022-09-13T09:20:06;22.90;99.90
39103;DHT22;24847;48.218;16.414;2022-09-13T09:25:12;23.40;99.90
39103;DHT22;24847;48.218;16.414;2022-09-13T09:30:16;23.50;99.90
39103;DHT22;24847;48.218;16.414;2022-09-13T09:35:29;23.70;99.90
39103;DHT22;24847;48.218;16.414;2022-09-13T09:40:39;23.30;99.90
39103;DHT22;24847;48.218;16.414;2022-09-13T09:45:44;24.80;99.50
39103;DHT22;24847;48.218;16.414;2022-09-13T09:50:50;24.60;98.50
39103;DHT22;24847;48.218;16.414;2022-09-13T09:55:58;23.90;99.00
39103;DHT22;24847;48.218;16.414;2022-09-13T10:01:04;23.90;98.90
39103;DHT22;24847;48.218;16.414;2022-09-13T10:06:08;24.10;99.10
39103;DHT22;24847;48.218;16.414;2022-09-13T10:11:13;23.80;99.10
39103;DHT22;24847;48.218;16.414;2022-09-13T10:16:24;24.00;98.50
39103;DHT22;24847;48.218;16.414;2022-09-13T10:21:28;23.60;99.30
39103;DHT22;24847;48.218;16.414;2022-09-13T10:26:31;23.20;99.10
39103;DHT22;24847;48.218;16.414;2022-09-13T10:31:39;24.10;98.90
39103;DHT22;24847;48.218;16.414;2022-09-13T10:36:51;23.00;99.80
39103;DHT22;24847;48.218;16.414;2022-09-13T10:41:57;24.10;99.30
39103;DHT22;24847;48.218;16.414;2022-09-13T10:47:05;23.30;99.30
39103;DHT22;24847;48.218;16.414;2022-09-13T10:52:26;23.70;99.10
39103;DHT22;24847;48.218;16.414;2022-09-13T10:57:33;23.80;99.10
39103;DHT22;24847;48.218;16.414;2022-09-13T11:08:32;23.80;98.20
39103;DHT22;24847;48.218;16.414;2022-09-13T11:13:51;24.40;97.50
39103;DHT22;24847;48.218;16.414;2022-09-13T11:19:19;24.50;97.30
39103;DHT22;24847;48.218;16.414;2022-09-13T11:24:44;24.00;97.10
39103;DHT22;24847;48.218;16.414;2022-09-13T11:30:09;24.00;97.00
39103;DHT22;24847;48.218;16.414;2022-09-13T11:35:33;24.10;97.10
39103;DHT22;24847;48.218;16.414;2022-09-13T11:40:46;24.60;96.80
39103;DHT22;24847;48.218;16.414;2022-09-13T11:45:59;24.10;96.50
39103;DHT22;24847;48.218;16.414;2022-09-13T11:51:10;24.10;96.10
39103;DHT22;24847;48.218;16.414;2022-09-13T11:56:18;24.10;95.20
39103;DHT22;24847;48.218;16.414;2022-09-13T12:01:26;24.30;95.40
39103;DHT22;24847;48.218;16.414;2022-09-13T12:06:35;24.30;95.90
39103;DHT22;24847;48.218;16.414;2022-09-13T12:11:40;24.30;95.30
39103;DHT22;24847;48.218;16.414;2022-09-13T12:16:47;24.50;95.40
39103;DHT22;24847;48.218;16.414;2022-09-13T12:21:54;24.10;96.30
39103;DHT22;24847;48.218;16.414;2022-09-13T12:27:01;24.10;95.40
39103;DHT22;24847;48.218;16.414;2022-09-13T12:32:07;24.20;95.90
39103;DHT22;24847;48.218;16.414;2022-09-13T12:43:13;24.20;95.90
39103;DHT22;24847;48.218;16.414;2022-09-13T12:48:46;23.60;95.60
39103;DHT22;24847;48.218;16.414;2022-09-13T12:53:59;23.50;95.90
39103;DHT22;24847;48.218;16.414;2022-09-13T13:04:55;23.00;96.20
39103;DHT22;24847;48.218;16.414;2022-09-13T13:10:02;23.30;96.90
39103;DHT22;24847;48.218;16.414;2022-09-13T13:26:45;23.00;96.20
39103;DHT22;24847;48.218;16.414;2022-09-13T13:32:09;23.20;96.00
39103;DHT22;24847;48.218;16.414;2022-09-13T13:37:27;23.10;95.90
39103;DHT22;24847;48.218;16.414;2022-09-13T13:42:35;23.10;95.70
39103;DHT22;24847;48.218;16.414;2022-09-13T13:48:07;23.30;96.00
39103;DHT22;24847;48.218;16.414;2022-09-13T13:53:20;23.20;95.60
39103;DHT22;24847;48.218;16.414;2022-09-13T13:58:30;23.30;95.90
39103;DHT22;24847;48.218;16.414;2022-09-13T14:03:51;23.10;95.20
39103;DHT22;24847;48.218;16.414;2022-09-13T14:09:05;22.90;95.10
39103;DHT22;24847;48.218;16.414;2022-09-13T14:14:32;23.40;95.20
39103;DHT22;24847;48.218;16.414;2022-09-13T14:19:46;23.70;95.70
39103;DHT22;24847;48.218;16.414;2022-09-13T14:24:51;23.40;95.50
39103;DHT22;24847;48.218;16.414;2022-09-13T14:29:58;23.40;95.80
39103;DHT22;24847;48.218;16.414;2022-09-13T14:35:03;23.30;95.70
39103;DHT22;24847;48.218;16.414;2022-09-13T14:40:16;23.30;95.70
39103;DHT22;24847;48.218;16.414;2022-09-13T14:45:24;23.10;95.80
39103;DHT22;24847;48.218;16.414;2022-09-13T14:50:29;22.90;95.30
39103;DHT22;24847;48.218;16.414;2022-09-13T14:55:35;23.10;95.50
39103;DHT22;24847;48.218;16.414;2022-09-13T15:00:48;23.20;95.60
39103;DHT22;24847;48.218;16.414;2022-09-13T15:05:54;23.00;95.70
39103;DHT22;24847;48.218;16.414;2022-09-13T15:10:58;22.60;96.10
39103;DHT22;24847;48.218;16.414;2022-09-13T15:16:27;22.60;96.50
39103;DHT22;24847;48.218;16.414;2022-09-13T15:21:34;22.40;97.40
39103;DHT22;24847;48.218;16.414;2022-09-13T15:26:37;22.50;96.90
39103;DHT22;24847;48.218;16.414;2022-09-13T15:31:41;22.40;96.60
39103;DHT22;24847;48.218;16.414;2022-09-13T15:36:44;22.50;97.10
39103;DHT22;24847;48.218;16.414;2022-09-13T15:41:51;22.80;96.90
39103;DHT22;24847;48.218;16.414;2022-09-13T15:46:58;22.60;97.20
39103;DHT22;24847;48.218;16.414;2022-09-13T15:52:04;22.60;97.30
39103;DHT22;24847;48.218;16.414;2022-09-13T15:57:08;22.60;96.80
39103;DHT22;24847;48.218;16.414;2022-09-13T16:02:18;22.60;97.40
39103;DHT22;24847;48.218;16.414;2022-09-13T16:07:22;22.60;97.90
39103;DHT22;24847;48.218;16.414;2022-09-13T16:12:26;22.60;96.70
39103;DHT22;24847;48.218;16.414;2022-09-13T16:17:30;22.60;96.70
39103;DHT22;24847;48.218;16.414;2022-09-13T16:22:32;22.50;96.80
39103;DHT22;24847;48.218;16.414;2022-09-13T16:27:36;22.60;96.40
39103;DHT22;24847;48.218;16.414;2022-09-13T16:32:40;22.50;96.50
39103;DHT22;24847;48.218;16.414;2022-09-13T16:37:42;22.30;96.60
39103;DHT22;24847;48.218;16.414;2022-09-13T16:42:45;22.30;96.90
39103;DHT22;24847;48.218;16.414;2022-09-13T16:47:49;22.30;96.40
39103;DHT22;24847;48.218;16.414;2022-09-13T16:52:51;22.20;96.10
39103;DHT22;24847;48.218;16.414;2022-09-13T16:57:54;22.30;95.90
39103;DHT22;24847;48.218;16.414;2022-09-13T17:02:57;22.10;96.00
39103;DHT22;24847;48.218;16.414;2022-09-13T17:08:00;22.10;96.20
39103;DHT22;24847;48.218;16.414;2022-09-13T17:13:02;22.10;96.20
39103;DHT22;24847;48.218;16.414;2022-09-13T17:18:06;22.00;96.60
39103;DHT22;24847;48.218;16.414;2022-09-13T17:23:08;22.00;96.80
39103;DHT22;24847;48.218;16.414;2022-09-13T17:28:10;22.00;96.80
39103;DHT22;24847;48.218;16.414;2022-09-13T17:33:14;22.00;97.00
39103;DHT22;24847;48.218;16.414;2022-09-13T17:38:16;21.90;97.30
39103;DHT22;24847;48.218;16.414;2022-09-13T17:43:18;21.90;97.50
39103;DHT22;24847;48.218;16.414;2022-09-13T17:48:22;22.10;97.60
39103;DHT22;24847;48.218;16.414;2022-09-13T17:53:24;22.10;97.40
39103;DHT22;24847;48.218;16.414;2022-09-13T17:58:27;22.00;97.50
39103;DHT22;24847;48.218;16.414;2022-09-13T18:03:30;21.90;97.80
39103;DHT22;24847;48.218;16.414;2022-09-13T18:08:34;21.90;98.10
39103;DHT22;24847;48.218;16.414;2022-09-13T18:13:37;21.90;98.20
39103;DHT22;24847;48.218;16.414;2022-09-13T18:18:41;21.90;98.40
39103;DHT22;24847;48.218;16.414;2022-09-13T18:23:46;21.90;98.40
39103;DHT22;24847;48.218;16.414;2022-09-13T18:28:53;21.80;98.50
39103;DHT22;24847;48.218;16.414;2022-09-13T18:33:59;21.70;98.80
39103;DHT22;24847;48.218;16.414;2022-09-13T18:39:03;21.70;99.10
39103;DHT22;24847;48.218;16.414;2022-09-13T18:44:08;21.40;99.60
39103;DHT22;24847;48.218;16.414;2022-09-13T18:49:12;21.40;99.90
39103;DHT22;24847;48.218;16.414;2022-09-13T18:54:17;21.50;99.90
39103;DHT22;24847;48.218;16.414;2022-09-13T18:59:19;21.40;99.90
39103;DHT22;24847;48.218;16.414;2022-09-13T19:04:23;21.30;99.90
39103;DHT22;24847;48.218;16.414;2022-09-13T19:09:25;21.10;99.90
39103;DHT22;24847;48.218;16.414;2022-09-13T19:14:28;21.10;99.90
39103;DHT22;24847;48.218;16.414;2022-09-13T19:19:33;21.00;99.90
39103;DHT22;24847;48.218;16.414;2022-09-13T19:24:38;20.90;99.90
39103;DHT22;24847;48.218;16.414;2022-09-13T19:29:40;20.90;99.90
39103;DHT22;24847;48.218;16.414;2022-09-13T19:34:44;20.90;99.90
39103;DHT22;24847;48.218;16.414;2022-09-13T19:39:46;21.00;99.90
39103;DHT22;24847;48.218;16.414;2022-09-13T19:44:48;20.90;99.90
39103;DHT22;24847;48.218;16.414;2022-09-13T19:49:52;20.90;99.90
39103;DHT22;24847;48.218;16.414;2022-09-13T19:54:54;21.00;99.90
39103;DHT22;24847;48.218;16.414;2022-09-13T19:59:58;20.80;99.90
39103;DHT22;24847;48.218;16.414;2022-09-13T20:05:02;20.50;99.90
39103;DHT22;24847;48.218;16.414;2022-09-13T20:10:05;19.90;99.90
39103;DHT22;24847;48.218;16.414;2022-09-13T20:15:08;19.80;99.90
39103;DHT22;24847;48.218;16.414;2022-09-13T20:20:12;19.60;99.90
39103;DHT22;24847;48.218;16.414;2022-09-13T20:25:15;19.40;99.90
39103;DHT22;24847;48.218;16.414;2022-09-13T20:30:18;19.90;99.90
39103;DHT22;24847;48.218;16.414;2022-09-13T20:35:21;20.00;99.90
39103;DHT22;24847;48.218;16.414;2022-09-13T20:40:24;20.10;99.90
39103;DHT22;24847;48.218;16.414;2022-09-13T20:45:26;19.50;99.90
39103;DHT22;24847;48.218;16.414;2022-09-13T20:50:30;19.30;99.90
39103;DHT22;24847;48.218;16.414;2022-09-13T20:55:32;19.20;99.90
39103;DHT22;24847;48.218;16.414;2022-09-13T21:00:37;19.10;99.90
39103;DHT22;24847;48.218;16.414;2022-09-13T21:05:40;19.00;99.90
39103;DHT22;24847;48.218;16.414;2022-09-13T21:10:42;18.80;99.90
39103;DHT22;24847;48.218;16.414;2022-09-13T21:15:46;18.90;99.90
39103;DHT22;24847;48.218;16.414;2022-09-13T21:21:01;18.70;99.90
39103;DHT22;24847;48.218;16.414;2022-09-13T21:26:05;18.90;99.90
39103;DHT22;24847;48.218;16.414;2022-09-13T21:31:11;19.20;99.90
39103;DHT22;24847;48.218;16.414;2022-09-13T21:36:16;19.10;99.90
39103;DHT22;24847;48.218;16.414;2022-09-13T21:41:19;18.70;99.90
39103;DHT22;24847;48.218;16.414;2022-09-13T21:46:24;18.70;99.90
39103;DHT22;24847;48.218;16.414;2022-09-13T21:51:29;18.80;99.90
39103;DHT22;24847;48.218;16.414;2022-09-13T21:56:36;18.70;99.90
39103;DHT22;24847;48.218;16.414;2022-09-13T22:01:40;18.40;99.90
39103;DHT22;24847;48.218;16.414;2022-09-13T22:06:45;18.30;99.90
39103;DHT22;24847;48.218;16.414;2022-09-13T22:11:50;18.30;99.90
39103;DHT22;24847;48.218;16.414;2022-09-13T22:16:52;18.20;99.90
39103;DHT22;24847;48.218;16.414;2022-09-13T22:21:57;18.30;99.90
39103;DHT22;24847;48.218;16.414;2022-09-13T22:27:00;18.30;99.90
39103;DHT22;24847;48.218;16.414;2022-09-13T22:32:02;18.70;99.90
39103;DHT22;24847;48.218;16.414;2022-09-13T22:37:05;18.60;99.90
39103;DHT22;24847;48.218;16.414;2022-09-13T22:42:08;18.30;99.90
39103;DHT22;24847;48.218;16.414;2022-09-13T22:47:10;18.40;99.90
39103;DHT22;24847;48.218;16.414;2022-09-13T22:52:13;18.20;99.90
39103;DHT22;24847;48.218;16.414;2022-09-13T22:57:15;18.40;99.90
39103;DHT22;24847;48.218;16.414;2022-09-13T23:02:18;18.40;99.90
39103;DHT22;24847;48.218;16.414;2022-09-13T23:07:21;18.00;99.90
39103;DHT22;24847;48.218;16.414;2022-09-13T23:12:23;17.80;99.90
39103;DHT22;24847;48.218;16.414;2022-09-13T23:17:25;17.80;99.90
39103;DHT22;24847;48.218;16.414;2022-09-13T23:22:29;17.70;99.90
39103;DHT22;24847;48.218;16.414;2022-09-13T23:27:31;17.80;99.90
39103;DHT22;24847;48.218;16.414;2022-09-13T23:32:33;17.90;99.90
39103;DHT22;24847;48.218;16.414;2022-09-13T23:37:37;18.10;99.90
39103;DHT22;24847;48.218;16.414;2022-09-13T23:42:40;17.90;99.90
39103;DHT22;24847;48.218;16.414;2022-09-13T23:47:42;18.00;99.90
39103;DHT22;24847;48.218;16.414;2022-09-13T23:52:45;17.80;99.90
39103;DHT22;24847;48.218;16.414;2022-09-13T23:57:48;17.80;99.90
